Terminal Aerodrome Forecast
Issued by NWS Sioux Falls, SD

Home | Current Version | Previous Version | Graphics & Text | Print | Product List | Glossary On
Versions: 1 2 3 4 5 6 7 8 9 10 11 12 13 14 15 16 17 18
000
FTUS43 KFSD 202300
TAFFSD
TAF
KFSD 202340Z 2100/2124 14010KT P6SM SCT050 SCT110 BKN150
      TEMPO 2105/2108 4SM TSRA BKN040CB
     FM211000 16005KT 4SM BR BKN008
     FM211600 17006KT P6SM SCT015
     FM212000 20008KT P6SM SCT035=

USA.gov is the U.S. government's official web portal to all federal, state and local government web resources and services.